createdAt,value
2023-07-09T00:00:20.103Z,1009.86
2023-07-09T00:01:20.093Z,1009.84
2023-07-09T00:02:41.097Z,1009.85
2023-07-09T00:03:20.012Z,1009.86
2023-07-09T00:04:20.104Z,1009.87
2023-07-09T00:05:19.958Z,1009.88
2023-07-09T00:06:21.877Z,1009.87
2023-07-09T00:07:19.918Z,1009.85
2023-07-09T00:08:40.871Z,1009.87
2023-07-09T00:09:19.844Z,1009.87
2023-07-09T00:10:19.827Z,1009.85
2023-07-09T00:11:19.795Z,1009.86
2023-07-09T00:12:19.761Z,1009.87
2023-07-09T00:13:19.760Z,1009.90
2023-07-09T00:14:40.709Z,1009.91
2023-07-09T00:15:19.694Z,1009.93
2023-07-09T00:16:19.736Z,1009.94
2023-07-09T00:17:19.668Z,1009.93
2023-07-09T00:18:19.607Z,1009.95
2023-07-09T00:19:19.766Z,1009.93
2023-07-09T00:20:40.548Z,1009.87
2023-07-09T00:21:19.522Z,1009.91
2023-07-09T00:22:19.495Z,1009.90
2023-07-09T00:23:19.484Z,1009.88
2023-07-09T00:24:19.436Z,1009.88
2023-07-09T00:25:19.418Z,1009.88
2023-07-09T00:26:40.411Z,1009.87
2023-07-09T00:27:19.364Z,1009.86
2023-07-09T00:28:19.334Z,1009.84
2023-07-09T00:29:19.304Z,1009.84
2023-07-09T00:30:19.276Z,1009.85
2023-07-09T00:31:19.318Z,1009.86
2023-07-09T00:32:40.264Z,1009.86
2023-07-09T00:33:19.198Z,1009.86
2023-07-09T00:34:19.174Z,1009.87
2023-07-09T00:35:19.145Z,1009.86
2023-07-09T00:36:19.117Z,1009.86
2023-07-09T00:37:19.094Z,1009.84
2023-07-09T00:38:40.142Z,1009.81
2023-07-09T00:39:19.379Z,1009.81
2023-07-09T00:40:19.018Z,1009.79
2023-07-09T00:41:18.978Z,1009.80
2023-07-09T00:42:18.956Z,1009.81
2023-07-09T00:43:18.929Z,1009.78
2023-07-09T00:44:39.899Z,1009.81
2023-07-09T00:45:18.892Z,1009.81
2023-07-09T00:46:18.960Z,1009.86
2023-07-09T00:47:18.868Z,1009.82
2023-07-09T00:48:18.817Z,1009.82
2023-07-09T00:49:18.758Z,1009.83
2023-07-09T00:50:39.739Z,1009.84
2023-07-09T00:51:18.737Z,1009.81
2023-07-09T00:52:18.725Z,1009.81
2023-07-09T00:53:18.663Z,1009.82
2023-07-09T00:54:18.615Z,1009.82
2023-07-09T00:55:18.653Z,1009.75
2023-07-09T00:56:39.566Z,1009.75
2023-07-09T00:57:18.602Z,1009.74
2023-07-09T00:58:18.532Z,1009.78
2023-07-09T00:59:18.480Z,1009.78
2023-07-09T01:00:18.474Z,1009.81
2023-07-09T01:01:18.459Z,1009.85
2023-07-09T01:02:39.413Z,1009.86
2023-07-09T01:03:18.377Z,1009.88
2023-07-09T01:04:18.345Z,1009.86
2023-07-09T01:05:18.390Z,1009.90
2023-07-09T01:06:18.300Z,1009.92
2023-07-09T01:07:18.262Z,1009.93
2023-07-09T01:08:39.237Z,1009.93
2023-07-09T01:09:18.207Z,1009.95
2023-07-09T01:10:18.192Z,1009.96
2023-07-09T01:11:18.157Z,1009.94
2023-07-09T01:12:18.127Z,1009.95
2023-07-09T01:13:18.102Z,1009.94
2023-07-09T01:14:39.074Z,1009.96
2023-07-09T01:15:18.043Z,1009.98
2023-07-09T01:16:18.028Z,1009.95
2023-07-09T01:17:17.989Z,1009.95
2023-07-09T01:18:17.957Z,1009.91
2023-07-09T01:19:17.928Z,1009.91
2023-07-09T01:20:38.906Z,1009.91
2023-07-09T01:21:17.877Z,1009.91
2023-07-09T01:22:17.850Z,1009.93
2023-07-09T01:23:17.899Z,1009.92
2023-07-09T01:24:17.793Z,1009.94
2023-07-09T01:25:17.805Z,1009.93
2023-07-09T01:26:38.737Z,1009.94
2023-07-09T01:27:17.707Z,1009.94
2023-07-09T01:28:17.688Z,1009.94
2023-07-09T01:29:17.653Z,1009.92
2023-07-09T01:30:17.619Z,1009.94
2023-07-09T01:31:17.628Z,1009.90
2023-07-09T01:32:38.613Z,1009.97
2023-07-09T01:33:17.541Z,1009.97
2023-07-09T01:34:17.513Z,1009.94
2023-07-09T01:35:17.487Z,1009.93
2023-07-09T01:36:17.459Z,1009.92
2023-07-09T01:37:17.428Z,1009.93
2023-07-09T01:38:38.425Z,1009.94
2023-07-09T01:39:17.381Z,1009.93
2023-07-09T01:40:29.229Z,1009.96
2023-07-09T01:41:17.319Z,1009.98
2023-07-09T01:42:17.298Z,1009.96
2023-07-09T01:43:17.277Z,1009.94
2023-07-09T01:44:38.235Z,1009.98
2023-07-09T01:45:17.224Z,1009.98
2023-07-09T01:46:17.184Z,1009.99
2023-07-09T01:47:17.248Z,1010.00
2023-07-09T01:48:17.524Z,1009.98
2023-07-09T01:49:17.105Z,1009.98
2023-07-09T01:50:38.073Z,1010.00
2023-07-09T01:51:17.050Z,1010.01
2023-07-09T01:52:17.015Z,1009.99
2023-07-09T01:53:17.012Z,1010.00
2023-07-09T01:54:17.022Z,1009.97
2023-07-09T01:55:16.932Z,1009.97
2023-07-09T01:56:37.895Z,1009.99
2023-07-09T01:57:16.876Z,1009.98
2023-07-09T01:58:16.844Z,1010.00
2023-07-09T01:59:16.822Z,1009.96
2023-07-09T02:00:16.837Z,1009.97
2023-07-09T02:01:16.799Z,1009.97
2023-07-09T02:02:37.759Z,1009.97
2023-07-09T02:03:16.736Z,1009.94
2023-07-09T02:04:16.701Z,1009.94
2023-07-09T02:05:16.658Z,1009.97
2023-07-09T02:06:16.668Z,1009.95
2023-07-09T02:07:16.595Z,1009.96
2023-07-09T02:08:37.567Z,1009.98
2023-07-09T02:09:16.546Z,1010.00
2023-07-09T02:10:16.625Z,1009.97
2023-07-09T02:11:16.485Z,1010.00
2023-07-09T02:12:16.455Z,1009.99
2023-07-09T02:13:16.433Z,1010.02
2023-07-09T02:14:37.401Z,1009.99
2023-07-09T02:15:16.385Z,1010.01
2023-07-09T02:16:16.346Z,1010.01
2023-07-09T02:17:16.399Z,1010.00
2023-07-09T02:18:16.302Z,1010.02
2023-07-09T02:19:16.257Z,1010.00
2023-07-09T02:20:37.234Z,1009.95
2023-07-09T02:21:16.208Z,1009.91
2023-07-09T02:22:16.176Z,1009.98
2023-07-09T02:23:16.147Z,1009.93
2023-07-09T02:24:16.120Z,1009.92
2023-07-09T02:25:16.093Z,1009.88
2023-07-09T02:26:37.162Z,1009.85
2023-07-09T02:27:16.049Z,1009.89
2023-07-09T02:28:16.005Z,1009.87
2023-07-09T02:29:15.981Z,1009.89
2023-07-09T02:30:15.952Z,1009.89
2023-07-09T02:31:15.959Z,1009.89
2023-07-09T02:32:36.976Z,1009.93
2023-07-09T02:33:15.874Z,1009.91
2023-07-09T02:34:15.834Z,1009.93
2023-07-09T02:35:15.816Z,1009.95
2023-07-09T02:36:15.781Z,1010.02
2023-07-09T02:37:15.753Z,1010.03
2023-07-09T02:38:36.727Z,1010.05
2023-07-09T02:39:15.699Z,1010.09
2023-07-09T02:40:15.667Z,1010.09
2023-07-09T02:41:15.642Z,1010.05
2023-07-09T02:42:15.624Z,1010.02
2023-07-09T02:43:15.586Z,1010.02
2023-07-09T02:44:36.557Z,1010.02
2023-07-09T02:45:15.533Z,1010.07
2023-07-09T02:46:15.498Z,1010.05
2023-07-09T02:47:15.546Z,1010.05
2023-07-09T02:48:15.525Z,1010.05
2023-07-09T02:49:15.419Z,1010.05
2023-07-09T02:50:36.379Z,1010.04
2023-07-09T02:51:15.359Z,1010.07
2023-07-09T02:52:15.350Z,1010.05
2023-07-09T02:53:15.310Z,1010.08
2023-07-09T02:54:15.276Z,1010.07
2023-07-09T02:55:15.250Z,1010.08
2023-07-09T02:56:36.268Z,1010.08
2023-07-09T02:57:15.192Z,1010.08
2023-07-09T02:58:15.164Z,1010.10
2023-07-09T02:59:15.134Z,1010.06
2023-07-09T03:00:15.111Z,1010.04
2023-07-09T03:01:15.084Z,1010.04
2023-07-09T03:02:36.081Z,1010.03
2023-07-09T03:03:15.061Z,1010.04
2023-07-09T03:04:14.994Z,1010.05
2023-07-09T03:05:14.957Z,1010.04
2023-07-09T03:06:14.936Z,1010.08
2023-07-09T03:07:14.971Z,1010.08
2023-07-09T03:08:35.881Z,1010.07
2023-07-09T03:09:14.857Z,1010.10
2023-07-09T03:10:14.870Z,1010.11
2023-07-09T03:11:14.798Z,1010.09
2023-07-09T03:12:14.770Z,1010.11
2023-07-09T03:13:14.736Z,1010.10
2023-07-09T03:14:35.715Z,1010.08
2023-07-09T03:15:14.680Z,1010.08
2023-07-09T03:16:14.703Z,1010.05
2023-07-09T03:17:14.647Z,1010.08
2023-07-09T03:18:14.601Z,1010.08
2023-07-09T03:19:14.575Z,1010.07
2023-07-09T03:20:35.540Z,1010.10
2023-07-09T03:21:14.514Z,1010.08
2023-07-09T03:22:14.489Z,1010.10
2023-07-09T03:23:14.497Z,1010.11
2023-07-09T03:24:14.433Z,1010.16
2023-07-09T03:25:14.405Z,1010.16
2023-07-09T03:26:35.392Z,1010.16
2023-07-09T03:27:14.356Z,1010.20
2023-07-09T03:28:14.319Z,1010.22
2023-07-09T03:29:14.287Z,1010.19
2023-07-09T03:30:14.270Z,1010.21
2023-07-09T03:31:14.235Z,1010.22
2023-07-09T03:32:35.225Z,1010.20
2023-07-09T03:33:14.176Z,1010.23
2023-07-09T03:34:14.149Z,1010.24
2023-07-09T03:35:14.180Z,1010.26
2023-07-09T03:36:14.371Z,1010.27
2023-07-09T03:37:14.125Z,1010.27
2023-07-09T03:38:35.033Z,1010.27
2023-07-09T03:39:14.009Z,1010.30
2023-07-09T03:40:13.985Z,1010.28
2023-07-09T03:41:13.955Z,1010.28
2023-07-09T03:42:13.929Z,1010.26
2023-07-09T03:43:13.903Z,1010.28
2023-07-09T03:44:34.863Z,1010.33
2023-07-09T03:45:13.841Z,1010.28
2023-07-09T03:46:13.815Z,1010.28
2023-07-09T03:47:13.837Z,1010.32
2023-07-09T03:48:13.796Z,1010.30
2023-07-09T03:49:13.733Z,1010.31
2023-07-09T03:50:34.691Z,1010.30
2023-07-09T03:51:13.666Z,1010.32
2023-07-09T03:52:13.639Z,1010.33
2023-07-09T03:53:13.609Z,1010.32
2023-07-09T03:54:13.587Z,1010.35
2023-07-09T03:55:13.558Z,1010.35
2023-07-09T03:56:34.528Z,1010.37
2023-07-09T03:57:13.502Z,1010.36
2023-07-09T03:58:13.466Z,1010.35
2023-07-09T03:59:13.444Z,1010.39
2023-07-09T04:00:13.425Z,1010.37
2023-07-09T04:01:13.396Z,1010.38
2023-07-09T04:02:34.391Z,1010.38
2023-07-09T04:03:13.324Z,1010.37
2023-07-09T04:04:13.452Z,1010.37
2023-07-09T04:05:13.277Z,1010.38
2023-07-09T04:06:13.241Z,1010.36
2023-07-09T04:07:13.227Z,1010.39
2023-07-09T04:08:34.185Z,1010.38
2023-07-09T04:09:13.150Z,1010.35
2023-07-09T04:10:13.134Z,1010.40
2023-07-09T04:11:13.099Z,1010.41
2023-07-09T04:12:13.070Z,1010.39
2023-07-09T04:13:13.063Z,1010.38
2023-07-09T04:14:34.012Z,1010.41
2023-07-09T04:15:12.987Z,1010.44
2023-07-09T04:16:13.022Z,1010.42
2023-07-09T04:17:12.924Z,1010.42
2023-07-09T04:18:12.914Z,1010.37
2023-07-09T04:19:12.879Z,1010.44
2023-07-09T04:20:33.840Z,1010.41
2023-07-09T04:21:12.814Z,1010.42
2023-07-09T04:22:12.791Z,1010.41
2023-07-09T04:23:12.770Z,1010.40
2023-07-09T04:24:12.737Z,1010.39
2023-07-09T04:25:12.721Z,1010.40
2023-07-09T04:26:33.667Z,1010.40
2023-07-09T04:27:12.644Z,1010.38
2023-07-09T04:28:12.617Z,1010.39
2023-07-09T04:29:12.586Z,1010.38
2023-07-09T04:30:12.563Z,1010.39
2023-07-09T04:31:12.590Z,1010.38
2023-07-09T04:32:33.508Z,1010.38
2023-07-09T04:33:12.466Z,1010.42
2023-07-09T04:34:12.457Z,1010.38
2023-07-09T04:35:12.415Z,1010.40
2023-07-09T04:36:12.384Z,1010.36
2023-07-09T04:37:12.359Z,1010.40
2023-07-09T04:38:34.516Z,1010.41
2023-07-09T04:39:12.306Z,1010.36
2023-07-09T04:40:12.279Z,1010.39
2023-07-09T04:41:12.244Z,1010.37
2023-07-09T04:42:12.217Z,1010.37
2023-07-09T04:43:12.196Z,1010.38
2023-07-09T04:44:33.166Z,1010.36
2023-07-09T04:45:12.162Z,1010.38
2023-07-09T04:46:13.247Z,1010.39
2023-07-09T04:47:12.078Z,1010.37
2023-07-09T04:48:12.076Z,1010.40
2023-07-09T04:49:12.020Z,1010.42
2023-07-09T04:50:32.995Z,1010.39
2023-07-09T04:51:11.973Z,1010.37
2023-07-09T04:52:11.972Z,1010.38
2023-07-09T04:53:11.908Z,1010.40
2023-07-09T04:54:11.917Z,1010.38
2023-07-09T04:55:11.848Z,1010.39
2023-07-09T04:56:32.842Z,1010.41
2023-07-09T04:57:11.792Z,1010.36
2023-07-09T04:58:11.784Z,1010.38
2023-07-09T04:59:11.735Z,1010.39
2023-07-09T05:00:12.236Z,1010.38
2023-07-09T05:01:11.725Z,1010.41
2023-07-09T05:02:32.691Z,1010.40
2023-07-09T05:03:11.706Z,1010.38
2023-07-09T05:04:11.641Z,1010.39
2023-07-09T05:05:11.568Z,1010.39
2023-07-09T05:06:11.568Z,1010.38
2023-07-09T05:07:11.512Z,1010.39
2023-07-09T05:08:32.494Z,1010.36
2023-07-09T05:09:11.459Z,1010.39
2023-07-09T05:10:11.433Z,1010.35
2023-07-09T05:11:11.399Z,1010.36
2023-07-09T05:12:11.381Z,1010.35
2023-07-09T05:13:11.367Z,1010.35
2023-07-09T05:14:32.316Z,1010.32
2023-07-09T05:15:11.289Z,1010.32
2023-07-09T05:16:11.305Z,1010.34
2023-07-09T05:17:11.230Z,1010.35
2023-07-09T05:18:11.236Z,1010.31
2023-07-09T05:19:11.178Z,1010.32
2023-07-09T05:20:32.158Z,1010.32
2023-07-09T05:21:11.130Z,1010.33
2023-07-09T05:22:11.100Z,1010.34
2023-07-09T05:23:11.067Z,1010.31
2023-07-09T05:24:11.125Z,1010.31
2023-07-09T05:25:11.011Z,1010.32
2023-07-09T05:26:31.982Z,1010.33
2023-07-09T05:27:10.949Z,1010.27
2023-07-09T05:28:10.927Z,1010.26
2023-07-09T05:29:10.903Z,1010.27
2023-07-09T05:30:10.887Z,1010.24
2023-07-09T05:31:10.901Z,1010.23
2023-07-09T05:32:31.857Z,1010.25
2023-07-09T05:33:10.866Z,1010.24
2023-07-09T05:34:10.758Z,1010.24
2023-07-09T05:35:10.739Z,1010.23
2023-07-09T05:36:10.699Z,1010.25
2023-07-09T05:37:10.668Z,1010.21
2023-07-09T05:38:31.703Z,1010.24
2023-07-09T05:39:10.634Z,1010.21
2023-07-09T05:40:10.584Z,1010.22
2023-07-09T05:41:10.560Z,1010.21
2023-07-09T05:42:10.535Z,1010.22
2023-07-09T05:43:10.501Z,1010.22
2023-07-09T05:44:31.474Z,1010.22
2023-07-09T05:45:10.458Z,1010.24
2023-07-09T05:46:10.431Z,1010.19
2023-07-09T05:47:10.448Z,1010.21
2023-07-09T05:48:10.388Z,1010.20
2023-07-09T05:49:12.012Z,1010.20
2023-07-09T05:50:31.337Z,1010.20
2023-07-09T05:51:10.277Z,1010.17
2023-07-09T05:52:10.252Z,1010.20
2023-07-09T05:53:10.227Z,1010.22
2023-07-09T05:54:10.205Z,1010.20
2023-07-09T05:55:10.170Z,1010.21
2023-07-09T05:56:31.145Z,1010.22
2023-07-09T05:57:10.113Z,1010.20
2023-07-09T05:58:10.099Z,1010.23
2023-07-09T05:59:10.062Z,1010.22
2023-07-09T06:00:12.046Z,1010.23
2023-07-09T06:01:10.071Z,1010.21
2023-07-09T06:02:31.013Z,1010.22
2023-07-09T06:03:10.074Z,1010.22
2023-07-09T06:04:10.037Z,1010.21
2023-07-09T06:05:09.956Z,1010.25
2023-07-09T06:06:09.889Z,1010.27
2023-07-09T06:07:09.853Z,1010.28
2023-07-09T06:08:30.822Z,1010.30
2023-07-09T06:09:09.783Z,1010.31
2023-07-09T06:10:09.762Z,1010.30
2023-07-09T06:11:09.726Z,1010.34
2023-07-09T06:12:09.746Z,1010.32
2023-07-09T06:13:09.673Z,1010.31
2023-07-09T06:14:30.655Z,1010.31
2023-07-09T06:15:09.619Z,1010.30
2023-07-09T06:16:09.590Z,1010.36
2023-07-09T06:17:09.646Z,1010.37
2023-07-09T06:18:09.552Z,1010.40
2023-07-09T06:19:09.512Z,1010.38
2023-07-09T06:20:30.496Z,1010.37
2023-07-09T06:21:09.460Z,1010.42
2023-07-09T06:22:09.425Z,1010.40
2023-07-09T06:23:09.407Z,1010.39
2023-07-09T06:24:09.374Z,1010.39
2023-07-09T06:25:09.343Z,1010.43
2023-07-09T06:26:30.322Z,1010.40
2023-07-09T06:27:09.294Z,1010.42
2023-07-09T06:28:09.261Z,1010.44
2023-07-09T06:29:09.237Z,1010.40
2023-07-09T06:30:09.224Z,1010.38
2023-07-09T06:31:09.212Z,1010.39
2023-07-09T06:32:30.216Z,1010.34
2023-07-09T06:33:09.305Z,1010.36
2023-07-09T06:34:09.101Z,1010.33
2023-07-09T06:35:09.079Z,1010.34
2023-07-09T06:36:09.050Z,1010.32
2023-07-09T06:37:09.027Z,1010.32
2023-07-09T06:38:30.025Z,1010.34
2023-07-09T06:39:08.970Z,1010.37
2023-07-09T06:40:08.949Z,1010.36
2023-07-09T06:41:08.918Z,1010.35
2023-07-09T06:42:08.894Z,1010.34
2023-07-09T06:43:08.858Z,1010.35
2023-07-09T06:44:29.834Z,1010.36
2023-07-09T06:45:08.808Z,1010.39
2023-07-09T06:46:11.567Z,1010.39
2023-07-09T06:47:08.855Z,1010.36
2023-07-09T06:48:08.789Z,1010.36
2023-07-09T06:49:08.701Z,1010.36
2023-07-09T06:50:29.672Z,1010.37
2023-07-09T06:51:08.656Z,1010.39
2023-07-09T06:52:08.634Z,1010.40
2023-07-09T06:53:08.593Z,1010.39
2023-07-09T06:54:08.575Z,1010.41
2023-07-09T06:55:08.564Z,1010.39
2023-07-09T06:56:29.540Z,1010.38
2023-07-09T06:57:08.500Z,1010.42
2023-07-09T06:58:08.471Z,1010.41
2023-07-09T06:59:08.440Z,1010.36
2023-07-09T07:00:08.424Z,1010.46
2023-07-09T07:01:08.378Z,1010.41
2023-07-09T07:02:29.404Z,1010.40
2023-07-09T07:03:08.478Z,1010.41
2023-07-09T07:04:08.346Z,1010.43
2023-07-09T07:05:08.277Z,1010.43
2023-07-09T07:06:08.479Z,1010.42
2023-07-09T07:07:08.223Z,1010.42
2023-07-09T07:08:29.189Z,1010.41
2023-07-09T07:09:08.181Z,1010.43
2023-07-09T07:10:08.202Z,1010.42
2023-07-09T07:11:08.109Z,1010.41
2023-07-09T07:12:08.081Z,1010.41
2023-07-09T07:13:08.069Z,1010.40
2023-07-09T07:14:29.038Z,1010.39
2023-07-09T07:15:08.010Z,1010.38
2023-07-09T07:16:08.026Z,1010.41
2023-07-09T07:17:07.966Z,1010.36
2023-07-09T07:18:07.983Z,1010.33
2023-07-09T07:19:07.899Z,1010.37
2023-07-09T07:20:28.875Z,1010.35
2023-07-09T07:21:07.882Z,1010.31
2023-07-09T07:22:07.822Z,1010.30
2023-07-09T07:23:07.796Z,1010.34
2023-07-09T07:24:07.762Z,1010.33
2023-07-09T07:25:07.756Z,1010.30
2023-07-09T07:26:28.737Z,1010.35
2023-07-09T07:27:07.702Z,1010.33
2023-07-09T07:28:07.672Z,1010.32
2023-07-09T07:29:07.640Z,1010.32
2023-07-09T07:30:07.620Z,1010.35
2023-07-09T07:31:07.580Z,1010.33
2023-07-09T07:32:28.575Z,1010.37
2023-07-09T07:33:07.634Z,1010.37
2023-07-09T07:34:07.524Z,1010.39
2023-07-09T07:35:07.502Z,1010.41
2023-07-09T07:36:28.113Z,1010.39
2023-07-09T07:37:07.423Z,1010.41
2023-07-09T07:38:28.415Z,1010.36
2023-07-09T07:39:07.370Z,1010.36
2023-07-09T07:40:07.364Z,1010.34
2023-07-09T07:41:07.331Z,1010.34
2023-07-09T07:42:07.753Z,1010.32
2023-07-09T07:43:07.270Z,1010.31
2023-07-09T07:44:28.252Z,1010.32
2023-07-09T07:45:07.233Z,1010.29
2023-07-09T07:46:07.512Z,1010.32
2023-07-09T07:47:07.178Z,1010.30
2023-07-09T07:48:07.186Z,1010.28
2023-07-09T07:49:07.123Z,1010.31
2023-07-09T07:50:28.103Z,1010.29
2023-07-09T07:51:07.086Z,1010.29
2023-07-09T07:52:07.041Z,1010.29
2023-07-09T07:53:07.015Z,1010.30
2023-07-09T07:54:07.000Z,1010.31
2023-07-09T07:55:06.969Z,1010.28
2023-07-09T07:56:28.026Z,1010.29
2023-07-09T07:57:06.933Z,1010.24
2023-07-09T07:58:06.891Z,1010.24
2023-07-09T07:59:06.867Z,1010.21
2023-07-09T08:00:06.848Z,1010.25
2023-07-09T08:01:07.084Z,1010.29
2023-07-09T08:02:27.878Z,1010.25
2023-07-09T08:03:06.824Z,1010.24
2023-07-09T08:04:06.790Z,1010.22
2023-07-09T08:05:06.717Z,1010.26
2023-07-09T08:06:06.850Z,1010.25
2023-07-09T08:07:06.685Z,1010.28
2023-07-09T08:08:27.649Z,1010.27
2023-07-09T08:09:06.611Z,1010.24
2023-07-09T08:10:06.598Z,1010.22
2023-07-09T08:11:06.811Z,1010.23
2023-07-09T08:12:06.540Z,1010.20
2023-07-09T08:13:06.521Z,1010.20
2023-07-09T08:14:27.493Z,1010.20
2023-07-09T08:15:06.486Z,1010.21
2023-07-09T08:16:06.651Z,1010.19
2023-07-09T08:17:06.419Z,1010.14
2023-07-09T08:18:06.435Z,1010.11
2023-07-09T08:19:06.367Z,1010.14
2023-07-09T08:20:27.338Z,1010.09
2023-07-09T08:21:06.308Z,1010.08
2023-07-09T08:22:06.286Z,1010.07
2023-07-09T08:23:06.263Z,1010.07
2023-07-09T08:24:06.253Z,1010.05
2023-07-09T08:25:06.214Z,1010.07
2023-07-09T08:26:27.204Z,1010.08
2023-07-09T08:27:06.163Z,1010.07
2023-07-09T08:28:06.160Z,1010.10
2023-07-09T08:29:06.141Z,1010.10
2023-07-09T08:30:06.091Z,1010.11
2023-07-09T08:31:06.269Z,1010.13
2023-07-09T08:32:27.061Z,1010.12
2023-07-09T08:33:06.075Z,1010.12
2023-07-09T08:34:05.997Z,1010.11
2023-07-09T08:35:33.815Z,1010.10
2023-07-09T08:36:05.954Z,1010.14
2023-07-09T08:37:05.920Z,1010.13
2023-07-09T08:38:26.891Z,1010.08
2023-07-09T08:39:05.869Z,1010.12
2023-07-09T08:40:05.848Z,1010.12
2023-07-09T08:41:06.036Z,1010.06
2023-07-09T08:42:05.797Z,1010.07
2023-07-09T08:43:05.779Z,1010.09
2023-07-09T08:44:26.755Z,1010.08
2023-07-09T08:46:05.840Z,1010.04
2023-07-09T08:47:05.694Z,1010.08
2023-07-09T08:48:05.734Z,1010.06
2023-07-09T08:49:05.642Z,1010.06
2023-07-09T08:50:26.631Z,1010.05
2023-07-09T08:51:26.618Z,1010.03
2023-07-09T08:52:05.590Z,1010.06
2023-07-09T08:53:05.578Z,1010.01
2023-07-09T08:54:05.529Z,1010.04
2023-07-09T08:55:26.497Z,1010.00
2023-07-09T08:56:26.495Z,1010.02
2023-07-09T08:57:05.451Z,1010.01
2023-07-09T08:58:05.437Z,1009.99
2023-07-09T08:59:05.475Z,1009.97
2023-07-09T09:00:26.391Z,1009.96
2023-07-09T09:01:26.376Z,1009.97
2023-07-09T09:02:05.451Z,1009.98
2023-07-09T09:03:05.377Z,1009.96
2023-07-09T09:04:05.590Z,1009.92
2023-07-09T09:05:26.280Z,1009.87
2023-07-09T09:06:26.246Z,1009.86
2023-07-09T09:07:05.215Z,1009.85
2023-07-09T09:08:06.925Z,1009.83
2023-07-09T09:09:05.173Z,1009.81
2023-07-09T09:10:26.140Z,1009.80
2023-07-09T09:11:26.139Z,1009.79
2023-07-09T09:12:05.076Z,1009.75
2023-07-09T09:13:05.084Z,1009.76
2023-07-09T09:14:05.163Z,1009.74
2023-07-09T09:15:26.024Z,1009.69
2023-07-09T09:16:26.025Z,1009.68
2023-07-09T09:17:04.985Z,1009.70
2023-07-09T09:18:04.995Z,1009.67
2023-07-09T09:19:04.922Z,1009.68
2023-07-09T09:20:25.919Z,1009.72
2023-07-09T09:21:25.889Z,1009.70
2023-07-09T09:22:06.209Z,1009.67
2023-07-09T09:23:04.849Z,1009.69
2023-07-09T09:24:04.808Z,1009.70
2023-07-09T09:25:25.805Z,1009.68
2023-07-09T09:27:04.806Z,1009.65
2023-07-09T09:28:04.793Z,1009.66
2023-07-09T09:29:04.755Z,1009.64
2023-07-09T09:30:25.746Z,1009.65
2023-07-09T09:32:47.313Z,1009.66
2023-07-09T09:33:47.238Z,1009.63
2023-07-09T09:35:51.173Z,1009.60
2023-07-09T09:36:51.144Z,1009.60
2023-07-09T09:37:51.121Z,1009.57
2023-07-09T09:38:51.094Z,1009.59
2023-07-09T09:40:07.045Z,1009.58
2023-07-09T09:40:51.039Z,1009.64
2023-07-09T09:41:51.018Z,1009.66
2023-07-09T09:42:51.006Z,1009.65
2023-07-09T09:43:50.976Z,1009.63
2023-07-09T09:44:50.948Z,1009.65
2023-07-09T09:45:50.929Z,1009.66
2023-07-09T09:46:50.966Z,1009.62
2023-07-09T09:47:50.905Z,1009.63
2023-07-09T09:48:50.879Z,1009.59
2023-07-09T09:49:50.837Z,1009.59
2023-07-09T09:50:50.818Z,1009.59
2023-07-09T09:51:50.799Z,1009.59
2023-07-09T09:52:50.793Z,1009.59
2023-07-09T09:53:50.745Z,1009.57
2023-07-09T09:54:50.718Z,1009.58
2023-07-09T09:55:50.700Z,1009.55
2023-07-09T09:56:50.676Z,1009.54
2023-07-09T09:57:50.659Z,1009.52
2023-07-09T09:58:50.633Z,1009.49
2023-07-09T09:59:50.635Z,1009.45
2023-07-09T10:00:50.633Z,1009.40
2023-07-09T10:01:50.598Z,1009.36
2023-07-09T10:02:50.676Z,1009.37
2023-07-09T10:03:52.769Z,1009.36
2023-07-09T10:04:50.497Z,1009.33
2023-07-09T10:05:50.475Z,1009.33
2023-07-09T10:06:50.454Z,1009.31
2023-07-09T10:07:50.459Z,1009.24
2023-07-09T10:08:50.410Z,1009.24
2023-07-09T10:09:50.419Z,1009.12
2023-07-09T10:10:50.369Z,1009.33
2023-07-09T10:11:50.343Z,1009.38
2023-07-09T10:12:50.331Z,1009.36
2023-07-09T10:13:50.364Z,1009.36
2023-07-09T10:14:50.277Z,1009.38
2023-07-09T10:15:50.255Z,1009.36
2023-07-09T10:16:50.238Z,1009.37
2023-07-09T10:17:50.287Z,1009.39
2023-07-09T10:18:50.271Z,1009.38
2023-07-09T10:19:50.166Z,1009.42
2023-07-09T10:20:50.197Z,1009.42
2023-07-09T10:21:50.127Z,1009.38
2023-07-09T10:22:50.098Z,1009.44
2023-07-09T10:23:50.127Z,1009.39
2023-07-09T10:24:50.054Z,1009.42
2023-07-09T10:25:50.036Z,1009.40
2023-07-09T10:26:50.020Z,1009.38
2023-07-09T10:27:50.000Z,1009.36
2023-07-09T10:28:50.006Z,1009.39
2023-07-09T10:29:49.953Z,1009.40
2023-07-09T10:30:49.962Z,1009.41
2023-07-09T10:31:49.902Z,1009.40
2023-07-09T10:32:49.906Z,1009.39
2023-07-09T10:33:49.862Z,1009.39
2023-07-09T10:34:49.838Z,1009.43
2023-07-09T10:35:49.813Z,1009.45
2023-07-09T10:36:49.820Z,1009.38
2023-07-09T10:37:49.796Z,1009.37
2023-07-09T10:38:49.747Z,1009.40
2023-07-09T10:39:49.754Z,1009.40
2023-07-09T10:40:49.710Z,1009.44
2023-07-09T10:41:49.696Z,1009.43
2023-07-09T10:42:49.664Z,1009.41
2023-07-09T10:43:49.659Z,1009.40
2023-07-09T10:44:49.624Z,1009.39
2023-07-09T10:45:49.597Z,1009.39
2023-07-09T10:46:49.640Z,1009.40
2023-07-09T10:47:49.614Z,1009.43
2023-07-09T10:48:49.553Z,1009.39
2023-07-09T10:49:49.517Z,1009.41
2023-07-09T10:50:49.583Z,1009.32
2023-07-09T10:51:49.490Z,1009.38
2023-07-09T10:52:49.460Z,1009.37
2023-07-09T10:53:49.441Z,1009.35
2023-07-09T10:54:49.416Z,1009.39
2023-07-09T10:55:49.389Z,1009.38
2023-07-09T10:56:49.384Z,1009.39
2023-07-09T10:57:49.357Z,1009.37
2023-07-09T10:58:49.343Z,1009.37
2023-07-09T10:59:49.343Z,1009.35
2023-07-09T11:00:49.292Z,1009.28
2023-07-09T11:01:49.303Z,1009.20
2023-07-09T11:02:49.360Z,1009.23
2023-07-09T11:03:49.245Z,1009.26
2023-07-09T11:04:49.240Z,1009.25
2023-07-09T11:05:49.202Z,1009.24
2023-07-09T11:06:49.167Z,1009.21
2023-07-09T11:07:49.154Z,1009.21
2023-07-09T11:08:49.127Z,1009.19
2023-07-09T11:09:49.140Z,1009.16
2023-07-09T11:10:49.094Z,1009.16
2023-07-09T11:11:49.076Z,1009.12
2023-07-09T11:12:49.054Z,1009.13
2023-07-09T11:13:52.457Z,1009.05
2023-07-09T11:14:49.014Z,1009.03
2023-07-09T11:15:49.582Z,1008.99
2023-07-09T11:16:49.189Z,1009.06
2023-07-09T11:17:49.090Z,1009.05
2023-07-09T11:18:48.947Z,1009.07
2023-07-09T11:19:49.390Z,1009.06
2023-07-09T11:20:48.900Z,1009.05
2023-07-09T11:21:48.886Z,1009.05
2023-07-09T11:22:48.916Z,1009.01
2023-07-09T11:23:48.941Z,1008.99
2023-07-09T11:24:48.845Z,1008.97
2023-07-09T11:25:48.818Z,1008.99
2023-07-09T11:26:48.908Z,1009.00
2023-07-09T11:27:48.776Z,1008.97
2023-07-09T11:28:48.755Z,1009.01
2023-07-09T11:29:48.746Z,1008.99
2023-07-09T11:30:48.745Z,1009.00
2023-07-09T11:31:48.886Z,1008.99
2023-07-09T11:32:48.766Z,1009.00
2023-07-09T11:33:48.787Z,1009.04
2023-07-09T11:34:48.673Z,1009.01
2023-07-09T11:35:48.625Z,1008.97
2023-07-09T11:36:48.624Z,1008.97
2023-07-09T11:37:48.690Z,1008.96
2023-07-09T11:38:48.607Z,1008.91
2023-07-09T11:39:48.572Z,1008.95
2023-07-09T11:40:48.575Z,1009.02
2023-07-09T11:41:48.513Z,1008.94
2023-07-09T11:42:48.554Z,1008.97
2023-07-09T11:43:48.479Z,1008.98
2023-07-09T11:44:48.482Z,1009.02
2023-07-09T11:45:48.497Z,1008.98
2023-07-09T11:46:48.468Z,1009.01
2023-07-09T11:47:48.438Z,1009.04
2023-07-09T11:48:48.389Z,1009.03
2023-07-09T11:49:48.366Z,1009.05
2023-07-09T11:50:48.360Z,1009.03
2023-07-09T11:51:48.377Z,1009.03
2023-07-09T11:52:48.321Z,1009.03
2023-07-09T11:53:48.306Z,1009.03
2023-07-09T11:54:48.282Z,1009.03
2023-07-09T11:55:48.268Z,1008.99
2023-07-09T11:56:48.267Z,1009.04
2023-07-09T11:57:48.226Z,1009.08
2023-07-09T11:58:48.227Z,1009.07
2023-07-09T11:59:48.210Z,1009.09
2023-07-09T12:00:48.174Z,1009.13
2023-07-09T12:01:48.278Z,1009.14
2023-07-09T12:02:48.178Z,1009.19
2023-07-09T12:03:48.161Z,1009.13
2023-07-09T12:04:48.102Z,1009.10
2023-07-09T12:05:48.085Z,1009.16
2023-07-09T12:06:48.077Z,1009.11
2023-07-09T12:07:48.054Z,1009.10
2023-07-09T12:08:48.039Z,1009.08
2023-07-09T12:09:48.009Z,1009.07